LGKRLGKF

Guest
Details From LGKR - Ioannis Kapodistrias Intl
To LGKF - Kefallinia
Flight Number -
Tags Routegen Generated
Created
Modified
Stats Distance 92 nm / 171 km
Max Altitude 200 ft / 61 m
Waypoints 6
Social Downloads 0
Likes 0
Share VATSIM

Download

Looking for another format? Having issues loading an existing format? Contact us
Advertisement - Login to hide

Notes

Departing runway 16 LGKR. Arriving runway 14 LGKF.

Route

LGKR +39.52_+019.93 +38.99_+020.14 +38.25_+020.42 +38.19_+020.44 LGKF

ID Type Via Altitude Latitude Longitude Leg Dist Tot Dist Heading (true) Name
O LGKR APT - 200 ft / 61 m 39.59128˚ 19.91461˚ - 0 nm - -
+39.52_+019.93 LATLON - 200 ft / 61 m 39.52028˚ 19.93281˚ 4 nm 4 nm 169° / 169° -
+38.99_+020.14 LATLON - 200 ft / 61 m 38.98814˚ 20.13930˚ 33 nm 37 nm 163° / 163° -
+38.25_+020.42 LATLON - 200 ft / 61 m 38.24571˚ 20.42450˚ 46 nm 84 nm 163° / 163° -
+38.19_+020.44 LATLON - 200 ft / 61 m 38.18944˚ 20.44184˚ 3 nm 87 nm 166° / 166° -
O LGKF APT - 0 ft / 0 m 38.12917˚ 20.49279˚ 4 nm 92 nm 146° / 146° -

Altitude Profile

Advertisement - Login to hide

LGKR

Details ICAO LGKR (CFU)
Name IOANNIS KAPODISTRIAS INTL
Region Greece
Timezone Europe/Athens (UTC+2.0)
Stats Elevation 6 ft / 2 m (AMSL)
Location 39.601779° 19.911908°
Runways 1
Magnetic Variation 4.099° E

METAR

LGKR 180820Z 00000KT 9999 FEW020TCU SCT030 BKN080 09/07 Q1016 NOSIG

Decode

TAF

TAF LGKR 180500Z 1806/1906 VRB03KT 9999 FEW018 BKN030 BKN080 PROB30 TEMPO 1806/1821 5000 RA SCT015 BKN025 BKN070 PROB30 TEMPO 1806/1812 3000 TSRA FEW010 FEW018CB BKN020 BKN070 BECMG 1807/1809 32015KT TEMPO 1812/1820 32015G25KT

Decode

Departure Runways

ID Width Length Bearing (true) Bearing (mag) Surface Threshold Offset Overrun Length
17 148 ft / 45 m 7,815 ft / 2,382 m 168.81° 164.71° Asphalt 1,348 ft / 411 m 0 ft / 0 m
35 148 ft / 45 m 7,815 ft / 2,382 m 348.81° 344.71° Asphalt 213 ft / 65 m 0 ft / 0 m

LGKF

Details ICAO LGKF (EFL)
Name Kefallinia
Region Greece
Timezone Europe/Athens (UTC+2.0)
Stats Elevation 59 ft / 18 m (AMSL)
Location 38.120069° 20.500480°
Runways 1
Magnetic Variation 4.053° E

METAR

LGKF 180850Z 00000KT 9999 -RA FEW016 SCT020 BKN070 10/09 Q1016

Decode

TAF

Not found

Destination Runways

ID Width Length Bearing (true) Bearing (mag) Surface Threshold Offset Overrun Length
14 148 ft / 45 m 7,979 ft / 2,432 m 146.39° 142.34° Asphalt 0 ft / 0 m 180 ft / 55 m
32 148 ft / 45 m 7,979 ft / 2,432 m 326.40° 322.35° Asphalt 912 ft / 278 m 100 ft / 30 m

Popular Alternatives